THY2827 OIIE-ORBI
Flight info
| Callsign | THY2827 |
|---|---|
| Flight time | 0h 59m |
| Altitude | 40000 |
| Route | DAXIL B411 ILM G202 SINKA |
| Aircraft | A359/H-SDE2E3GHIJ3J4J5LM1ORWXY/LB1D1 |
Departure
| Time | 2026-05-09 18:47 |
|---|---|
| Airport | Imam Khomeini International Airport (OIIE) |
Arrival
| Time | 2026-05-09 19:46 |
|---|---|
| Airport | Baghdad International Airport / New Al Muthana Air Base (ORBI) |
| Time | Latitude | Longitude | Altitude | Speed | Heading |
|---|---|---|---|---|---|
| 2026-05-09 18:35 | 35.41075 | 51.15376 | 3264 ft | 0 kts | 197° |
| 2026-05-09 18:37 | 35.41096 | 51.15384 | 3260 ft | 4 kts | 197° |
| 2026-05-09 18:37 | 35.41120 | 51.15393 | 3259 ft | 3 kts | 197° |
| 2026-05-09 18:37 | 35.41142 | 51.15396 | 3259 ft | 4 kts | 142° |
| 2026-05-09 18:38 | 35.41154 | 51.15370 | 3261 ft | 4 kts | 106° |
| 2026-05-09 18:38 | 35.41156 | 51.15360 | 3264 ft | 0 kts | 109° |
| 2026-05-09 18:40 | 35.41149 | 51.15386 | 3262 ft | 8 kts | 109° |
| 2026-05-09 18:41 | 35.41128 | 51.15460 | 3262 ft | 11 kts | 108° |
| 2026-05-09 18:41 | 35.41102 | 51.15557 | 3260 ft | 13 kts | 108° |
| 2026-05-09 18:41 | 35.41070 | 51.15675 | 3261 ft | 16 kts | 109° |
| 2026-05-09 18:41 | 35.41030 | 51.15816 | 3259 ft | 19 kts | 109° |
| 2026-05-09 18:42 | 35.40986 | 51.15977 | 3258 ft | 19 kts | 109° |
| 2026-05-09 18:42 | 35.40947 | 51.16112 | 3256 ft | 18 kts | 109° |
| 2026-05-09 18:42 | 35.40915 | 51.16252 | 3255 ft | 14 kts | 81° |
| 2026-05-09 18:42 | 35.40978 | 51.16301 | 3254 ft | 11 kts | 20° |
| 2026-05-09 18:43 | 35.41049 | 51.16333 | 3255 ft | 11 kts | 19° |
| 2026-05-09 18:43 | 35.41125 | 51.16364 | 3255 ft | 12 kts | 19° |
| 2026-05-09 18:43 | 35.41207 | 51.16399 | 3255 ft | 13 kts | 19° |
| 2026-05-09 18:43 | 35.41297 | 51.16437 | 3255 ft | 13 kts | 19° |
| 2026-05-09 18:44 | 35.41357 | 51.16422 | 3255 ft | 6 kts | 295° |
| 2026-05-09 18:44 | 35.41362 | 51.16408 | 3255 ft | 0 kts | 291° |
| 2026-05-09 18:46 | 35.41362 | 51.16407 | 3255 ft | 1 kts | 291° |
| 2026-05-09 18:46 | 35.41411 | 51.16243 | 3256 ft | 54 kts | 289° |
| 2026-05-09 18:46 | 35.41607 | 51.15540 | 3261 ft | 119 kts | 289° |
| 2026-05-09 18:46 | 35.41937 | 51.14359 | 3286 ft | 172 kts | 290° |
| 2026-05-09 18:47 | 35.42285 | 51.12964 | 4064 ft | 167 kts | 288° |
| 2026-05-09 18:47 | 35.42610 | 51.11599 | 4863 ft | 172 kts | 288° |
| 2026-05-09 18:47 | 35.43005 | 51.10113 | 5205 ft | 194 kts | 291° |
| 2026-05-09 18:47 | 35.43507 | 51.08481 | 5500 ft | 217 kts | 294° |
| 2026-05-09 18:48 | 35.43898 | 51.06569 | 5695 ft | 247 kts | 279° |
| 2026-05-09 18:48 | 35.43928 | 51.04338 | 5952 ft | 276 kts | 268° |
| 2026-05-09 18:48 | 35.43468 | 51.02011 | 6699 ft | 282 kts | 254° |
| 2026-05-09 18:48 | 35.42820 | 50.99846 | 7986 ft | 267 kts | 251° |
| 2026-05-09 18:49 | 35.42109 | 50.97754 | 9145 ft | 266 kts | 248° |
| 2026-05-09 18:49 | 35.41346 | 50.95694 | 10146 ft | 266 kts | 246° |
| 2026-05-09 18:49 | 35.40525 | 50.93581 | 10709 ft | 285 kts | 245° |
| 2026-05-09 18:49 | 35.39623 | 50.91314 | 11083 ft | 306 kts | 245° |
| 2026-05-09 18:50 | 35.38654 | 50.88896 | 11476 ft | 325 kts | 245° |
| 2026-05-09 18:50 | 35.37641 | 50.86363 | 12132 ft | 335 kts | 244° |
| 2026-05-09 18:50 | 35.36617 | 50.83795 | 13022 ft | 336 kts | 244° |
| 2026-05-09 18:50 | 35.35592 | 50.81217 | 13922 ft | 336 kts | 244° |
| 2026-05-09 18:51 | 35.34579 | 50.78668 | 14686 ft | 339 kts | 244° |
| 2026-05-09 18:51 | 35.33540 | 50.76051 | 15385 ft | 344 kts | 244° |
| 2026-05-09 18:51 | 35.32485 | 50.73394 | 16102 ft | 349 kts | 244° |
| 2026-05-09 18:51 | 35.31418 | 50.70705 | 16799 ft | 354 kts | 244° |
| 2026-05-09 18:52 | 35.30335 | 50.67977 | 17537 ft | 358 kts | 244° |
| 2026-05-09 18:52 | 35.29237 | 50.65214 | 18268 ft | 363 kts | 244° |
| 2026-05-09 18:52 | 35.28134 | 50.62439 | 19026 ft | 362 kts | 244° |
| 2026-05-09 18:52 | 35.27028 | 50.59662 | 19742 ft | 365 kts | 244° |
| 2026-05-09 18:53 | 35.25908 | 50.56850 | 20358 ft | 370 kts | 244° |
| 2026-05-09 18:53 | 35.24788 | 50.54044 | 21021 ft | 374 kts | 244° |
| 2026-05-09 18:53 | 35.23642 | 50.51172 | 21688 ft | 378 kts | 244° |
| 2026-05-09 18:53 | 35.22481 | 50.48265 | 22374 ft | 382 kts | 244° |
| 2026-05-09 18:54 | 35.21306 | 50.45329 | 23044 ft | 386 kts | 244° |
| 2026-05-09 18:54 | 35.20120 | 50.42365 | 23693 ft | 390 kts | 244° |
| 2026-05-09 18:54 | 35.18922 | 50.39374 | 24361 ft | 392 kts | 244° |
| 2026-05-09 18:54 | 35.17720 | 50.36377 | 24974 ft | 394 kts | 244° |
| 2026-05-09 18:55 | 35.16507 | 50.33354 | 25559 ft | 398 kts | 244° |
| 2026-05-09 18:55 | 35.15283 | 50.30307 | 26112 ft | 401 kts | 244° |
| 2026-05-09 18:55 | 35.14065 | 50.27279 | 26653 ft | 405 kts | 244° |
| 2026-05-09 18:55 | 35.12817 | 50.24177 | 27220 ft | 408 kts | 244° |
| 2026-05-09 18:56 | 35.11560 | 50.21055 | 27774 ft | 411 kts | 244° |
| 2026-05-09 18:56 | 35.10289 | 50.17903 | 28335 ft | 415 kts | 244° |
| 2026-05-09 18:56 | 35.09009 | 50.14731 | 28892 ft | 418 kts | 244° |
| 2026-05-09 18:56 | 35.07718 | 50.11537 | 29440 ft | 421 kts | 244° |
| 2026-05-09 18:57 | 35.06415 | 50.08316 | 29964 ft | 425 kts | 244° |
| 2026-05-09 18:57 | 35.05103 | 50.05075 | 30413 ft | 428 kts | 244° |
| 2026-05-09 18:57 | 35.03778 | 50.01805 | 30829 ft | 431 kts | 245° |
| 2026-05-09 18:57 | 35.02463 | 49.98562 | 31214 ft | 434 kts | 245° |
| 2026-05-09 18:58 | 35.01117 | 49.95247 | 31541 ft | 438 kts | 245° |
| 2026-05-09 18:58 | 34.99756 | 49.91897 | 31789 ft | 443 kts | 245° |
| 2026-05-09 18:58 | 34.98385 | 49.88525 | 32151 ft | 445 kts | 245° |
| 2026-05-09 18:58 | 34.97006 | 49.85139 | 32532 ft | 447 kts | 245° |
| 2026-05-09 18:59 | 34.95619 | 49.81739 | 32876 ft | 449 kts | 245° |
| 2026-05-09 18:59 | 34.94223 | 49.78317 | 33212 ft | 452 kts | 245° |
| 2026-05-09 18:59 | 34.92825 | 49.74896 | 33654 ft | 451 kts | 245° |
| 2026-05-09 18:59 | 34.91447 | 49.71529 | 34142 ft | 449 kts | 246° |
| 2026-05-09 19:00 | 34.90054 | 49.68126 | 34511 ft | 449 kts | 246° |
| 2026-05-09 19:00 | 34.87279 | 49.61358 | 35365 ft | 445 kts | 245° |
| 2026-05-09 19:00 | 34.86033 | 49.57927 | 35658 ft | 443 kts | 251° |
| 2026-05-09 19:01 | 34.85038 | 49.54384 | 36047 ft | 441 kts | 252° |
| 2026-05-09 19:01 | 34.84106 | 49.50830 | 36434 ft | 440 kts | 253° |
| 2026-05-09 19:01 | 34.83208 | 49.47284 | 36849 ft | 437 kts | 253° |
| 2026-05-09 19:01 | 34.82338 | 49.43794 | 37221 ft | 436 kts | 253° |
| 2026-05-09 19:02 | 34.81462 | 49.40270 | 37550 ft | 435 kts | 253° |
| 2026-05-09 19:02 | 34.80585 | 49.36749 | 37859 ft | 435 kts | 253° |
| 2026-05-09 19:02 | 34.79702 | 49.33220 | 38088 ft | 436 kts | 253° |
| 2026-05-09 19:02 | 34.78815 | 49.29697 | 38425 ft | 435 kts | 253° |
| 2026-05-09 19:03 | 34.77925 | 49.26173 | 38565 ft | 438 kts | 252° |
| 2026-05-09 19:03 | 34.77027 | 49.22628 | 38794 ft | 439 kts | 252° |
| 2026-05-09 19:03 | 34.76129 | 49.19087 | 39060 ft | 438 kts | 252° |
| 2026-05-09 19:03 | 34.75233 | 49.15558 | 39310 ft | 437 kts | 252° |
| 2026-05-09 19:04 | 34.74336 | 49.12033 | 39536 ft | 436 kts | 252° |
| 2026-05-09 19:04 | 34.73453 | 49.08563 | 39742 ft | 436 kts | 252° |
| 2026-05-09 19:04 | 34.72553 | 49.05036 | 39848 ft | 438 kts | 252° |
| 2026-05-09 19:04 | 34.71648 | 49.01492 | 39971 ft | 439 kts | 252° |
| 2026-05-09 19:05 | 34.70741 | 48.97944 | 40098 ft | 440 kts | 252° |
| 2026-05-09 19:05 | 34.69832 | 48.94393 | 40120 ft | 439 kts | 252° |
| 2026-05-09 19:05 | 34.68016 | 48.87317 | 40126 ft | 439 kts | 252° |
| 2026-05-09 19:06 | 34.66196 | 48.80242 | 40131 ft | 439 kts | 252° |
| 2026-05-09 19:06 | 34.64386 | 48.73221 | 40140 ft | 439 kts | 252° |
| 2026-05-09 19:07 | 34.62558 | 48.66152 | 40139 ft | 439 kts | 252° |
| 2026-05-09 19:07 | 34.60725 | 48.59085 | 40163 ft | 439 kts | 252° |
| 2026-05-09 19:08 | 34.58873 | 48.52008 | 40144 ft | 441 kts | 251° |
| 2026-05-09 19:08 | 34.56417 | 48.45249 | 40144 ft | 441 kts | 245° |
| 2026-05-09 19:09 | 34.53672 | 48.38595 | 40140 ft | 441 kts | 244° |
| 2026-05-09 19:09 | 34.50876 | 48.31965 | 40138 ft | 441 kts | 244° |
| 2026-05-09 19:10 | 34.48080 | 48.25336 | 40138 ft | 442 kts | 244° |
| 2026-05-09 19:10 | 34.45310 | 48.18757 | 40137 ft | 441 kts | 244° |
| 2026-05-09 19:11 | 34.42527 | 48.12146 | 40136 ft | 440 kts | 244° |
| 2026-05-09 19:11 | 34.39743 | 48.05544 | 40137 ft | 440 kts | 244° |
| 2026-05-09 19:12 | 34.36954 | 47.98949 | 40124 ft | 440 kts | 244° |
| 2026-05-09 19:12 | 34.34178 | 47.92392 | 40140 ft | 441 kts | 244° |
| 2026-05-09 19:13 | 34.31380 | 47.85798 | 40125 ft | 441 kts | 244° |
| 2026-05-09 19:13 | 34.28576 | 47.79204 | 40141 ft | 441 kts | 244° |
| 2026-05-09 19:14 | 34.25771 | 47.72620 | 40115 ft | 440 kts | 244° |
| 2026-05-09 19:14 | 34.22979 | 47.66081 | 40142 ft | 440 kts | 244° |
| 2026-05-09 19:15 | 34.20166 | 47.59503 | 40124 ft | 440 kts | 244° |
| 2026-05-09 19:15 | 34.17351 | 47.52933 | 40128 ft | 440 kts | 244° |
| 2026-05-09 19:16 | 34.14531 | 47.46362 | 40130 ft | 441 kts | 244° |
| 2026-05-09 19:16 | 34.11706 | 47.39793 | 40111 ft | 440 kts | 244° |
| 2026-05-09 19:17 | 34.08898 | 47.33277 | 40135 ft | 440 kts | 244° |
| 2026-05-09 19:17 | 34.06065 | 47.26717 | 40131 ft | 441 kts | 244° |
| 2026-05-09 19:18 | 34.03232 | 47.20167 | 40135 ft | 441 kts | 244° |
| 2026-05-09 19:18 | 34.00395 | 47.13620 | 40127 ft | 441 kts | 244° |
| 2026-05-09 19:19 | 33.97385 | 47.07242 | 40127 ft | 442 kts | 238° |
| 2026-05-09 19:19 | 33.93863 | 47.01159 | 40111 ft | 443 kts | 237° |
| 2026-05-09 19:20 | 33.90252 | 46.95144 | 40126 ft | 444 kts | 236° |
| 2026-05-09 19:20 | 33.86623 | 46.89133 | 40129 ft | 444 kts | 237° |
| 2026-05-09 19:21 | 33.83000 | 46.83123 | 40128 ft | 444 kts | 237° |
| 2026-05-09 19:21 | 33.79402 | 46.77151 | 40136 ft | 444 kts | 237° |
| 2026-05-09 19:22 | 33.75783 | 46.71147 | 40139 ft | 444 kts | 237° |
| 2026-05-09 19:22 | 33.72156 | 46.65142 | 40145 ft | 444 kts | 237° |
| 2026-05-09 19:23 | 33.68527 | 46.59145 | 40153 ft | 444 kts | 237° |
| 2026-05-09 19:23 | 33.64920 | 46.53196 | 40155 ft | 444 kts | 236° |
| 2026-05-09 19:24 | 33.61280 | 46.47196 | 40152 ft | 444 kts | 237° |
| 2026-05-09 19:24 | 33.58314 | 46.40762 | 40153 ft | 440 kts | 250° |
| 2026-05-09 19:25 | 33.56826 | 46.33680 | 40161 ft | 439 kts | 260° |
| 2026-05-09 19:25 | 33.55901 | 46.26503 | 40157 ft | 439 kts | 262° |
| 2026-05-09 19:26 | 33.55045 | 46.19265 | 40147 ft | 438 kts | 262° |
| 2026-05-09 19:26 | 33.54166 | 46.12038 | 40137 ft | 438 kts | 262° |
| 2026-05-09 19:27 | 33.53261 | 46.04814 | 40124 ft | 438 kts | 262° |
| 2026-05-09 19:27 | 33.52351 | 45.97643 | 40103 ft | 438 kts | 261° |
| 2026-05-09 19:28 | 33.51431 | 45.90432 | 40097 ft | 438 kts | 262° |
| 2026-05-09 19:28 | 33.50490 | 45.83221 | 39717 ft | 438 kts | 261° |
| 2026-05-09 19:29 | 33.49998 | 45.79618 | 39101 ft | 439 kts | 261° |
| 2026-05-09 19:29 | 33.49501 | 45.76008 | 38353 ft | 440 kts | 262° |
| 2026-05-09 19:29 | 33.49002 | 45.72394 | 37538 ft | 440 kts | 262° |
| 2026-05-09 19:29 | 33.48505 | 45.68779 | 36755 ft | 440 kts | 262° |
| 2026-05-09 19:30 | 33.48015 | 45.65216 | 36008 ft | 439 kts | 262° |
| 2026-05-09 19:30 | 33.47520 | 45.61610 | 35276 ft | 438 kts | 262° |
| 2026-05-09 19:30 | 33.47027 | 45.58014 | 34554 ft | 437 kts | 262° |
| 2026-05-09 19:30 | 33.46535 | 45.54438 | 33809 ft | 435 kts | 262° |
| 2026-05-09 19:31 | 33.46044 | 45.50869 | 33009 ft | 434 kts | 262° |
| 2026-05-09 19:31 | 33.45552 | 45.47304 | 32262 ft | 435 kts | 262° |
| 2026-05-09 19:31 | 33.45057 | 45.43725 | 31509 ft | 437 kts | 262° |
| 2026-05-09 19:31 | 33.44565 | 45.40173 | 30779 ft | 439 kts | 262° |
| 2026-05-09 19:32 | 33.44063 | 45.36560 | 29875 ft | 441 kts | 262° |
| 2026-05-09 19:32 | 33.43558 | 45.32930 | 28723 ft | 444 kts | 262° |
| 2026-05-09 19:32 | 33.43049 | 45.29275 | 27560 ft | 445 kts | 262° |
| 2026-05-09 19:32 | 33.42543 | 45.25664 | 26423 ft | 435 kts | 262° |
| 2026-05-09 19:33 | 33.42043 | 45.22111 | 25360 ft | 431 kts | 262° |
| 2026-05-09 19:33 | 33.41547 | 45.18580 | 24305 ft | 429 kts | 261° |
| 2026-05-09 19:33 | 33.41052 | 45.15071 | 23213 ft | 427 kts | 261° |
| 2026-05-09 19:33 | 33.40560 | 45.11582 | 22034 ft | 422 kts | 261° |
| 2026-05-09 19:34 | 33.40080 | 45.08190 | 20916 ft | 416 kts | 261° |
| 2026-05-09 19:34 | 33.39600 | 45.04811 | 19829 ft | 408 kts | 261° |
| 2026-05-09 19:34 | 33.39128 | 45.01491 | 18774 ft | 402 kts | 262° |
| 2026-05-09 19:34 | 33.38663 | 44.98229 | 17644 ft | 394 kts | 261° |
| 2026-05-09 19:35 | 33.38209 | 44.95046 | 16499 ft | 382 kts | 261° |
| 2026-05-09 19:35 | 33.37768 | 44.91963 | 15397 ft | 371 kts | 261° |
| 2026-05-09 19:35 | 33.37339 | 44.88961 | 14332 ft | 362 kts | 261° |
| 2026-05-09 19:35 | 33.36919 | 44.86028 | 13225 ft | 354 kts | 261° |
| 2026-05-09 19:36 | 33.36505 | 44.83151 | 12089 ft | 348 kts | 261° |
| 2026-05-09 19:36 | 33.36102 | 44.80365 | 11006 ft | 342 kts | 262° |
| 2026-05-09 19:36 | 33.35713 | 44.77587 | 9959 ft | 336 kts | 263° |
| 2026-05-09 19:36 | 33.35079 | 44.74920 | 8853 ft | 334 kts | 247° |
| 2026-05-09 19:37 | 33.33958 | 44.72509 | 7759 ft | 331 kts | 241° |
| 2026-05-09 19:37 | 33.32594 | 44.70300 | 6703 ft | 328 kts | 236° |
| 2026-05-09 19:37 | 33.31145 | 44.68222 | 5783 ft | 321 kts | 234° |
| 2026-05-09 19:37 | 33.29714 | 44.66265 | 5212 ft | 303 kts | 233° |
| 2026-05-09 19:38 | 33.28355 | 44.64452 | 4938 ft | 284 kts | 232° |
| 2026-05-09 19:38 | 33.27047 | 44.62727 | 4732 ft | 276 kts | 232° |
| 2026-05-09 19:38 | 33.25783 | 44.61066 | 4493 ft | 274 kts | 232° |
| 2026-05-09 19:38 | 33.24499 | 44.59385 | 4341 ft | 274 kts | 231° |
| 2026-05-09 19:39 | 33.23209 | 44.57711 | 4228 ft | 274 kts | 231° |
| 2026-05-09 19:39 | 33.21916 | 44.56030 | 4128 ft | 274 kts | 231° |
| 2026-05-09 19:39 | 33.20624 | 44.54355 | 4042 ft | 274 kts | 231° |
| 2026-05-09 19:39 | 33.19332 | 44.52682 | 3937 ft | 274 kts | 231° |
| 2026-05-09 19:40 | 33.18040 | 44.51012 | 3844 ft | 273 kts | 231° |
| 2026-05-09 19:40 | 33.16753 | 44.49354 | 3732 ft | 272 kts | 231° |
| 2026-05-09 19:40 | 33.15466 | 44.47701 | 3650 ft | 268 kts | 230° |
| 2026-05-09 19:40 | 33.14244 | 44.46128 | 3605 ft | 254 kts | 231° |
| 2026-05-09 19:41 | 33.13089 | 44.44642 | 3524 ft | 235 kts | 231° |
| 2026-05-09 19:41 | 33.12013 | 44.43262 | 3433 ft | 221 kts | 231° |
| 2026-05-09 19:41 | 33.11181 | 44.41774 | 3399 ft | 214 kts | 250° |
| 2026-05-09 19:41 | 33.10917 | 44.40072 | 3392 ft | 206 kts | 278° |
| 2026-05-09 19:42 | 33.11390 | 44.38503 | 3294 ft | 200 kts | 306° |
| 2026-05-09 19:42 | 33.12211 | 44.37231 | 3124 ft | 188 kts | 312° |
| 2026-05-09 19:42 | 33.13056 | 44.36074 | 2935 ft | 182 kts | 314° |
| 2026-05-09 19:42 | 33.13863 | 44.34975 | 2826 ft | 176 kts | 313° |
| 2026-05-09 19:43 | 33.14662 | 44.33880 | 2656 ft | 174 kts | 313° |
| 2026-05-09 19:43 | 33.15457 | 44.32811 | 2413 ft | 171 kts | 315° |
| 2026-05-09 19:43 | 33.16299 | 44.31814 | 2205 ft | 171 kts | 320° |
| 2026-05-09 19:43 | 33.17179 | 44.30939 | 2065 ft | 153 kts | 326° |
| 2026-05-09 19:44 | 33.18052 | 44.30273 | 1802 ft | 147 kts | 330° |
| 2026-05-09 19:44 | 33.18930 | 44.29685 | 1537 ft | 141 kts | 330° |
| 2026-05-09 19:44 | 33.19733 | 44.29098 | 1359 ft | 131 kts | 328° |
| 2026-05-09 19:44 | 33.20479 | 44.28522 | 1116 ft | 127 kts | 332° |
| 2026-05-09 19:45 | 33.21262 | 44.28019 | 963 ft | 128 kts | 332° |
| 2026-05-09 19:45 | 33.22047 | 44.27509 | 843 ft | 129 kts | 329° |
| 2026-05-09 19:45 | 33.22823 | 44.26952 | 693 ft | 130 kts | 329° |
| 2026-05-09 19:45 | 33.23588 | 44.26405 | 498 ft | 126 kts | 330° |
| 2026-05-09 19:46 | 33.24347 | 44.25887 | 320 ft | 125 kts | 331° |
| 2026-05-09 19:46 | 33.25106 | 44.25361 | 166 ft | 126 kts | 332° |
| 2026-05-09 19:46 | 33.25842 | 44.24862 | 117 ft | 110 kts | 330° |
| 2026-05-09 19:46 | 33.26295 | 44.24550 | 118 ft | 44 kts | 330° |
| 2026-05-09 19:47 | 33.26544 | 44.24382 | 116 ft | 40 kts | 329° |
| 2026-05-09 19:47 | 33.26751 | 44.24182 | 117 ft | 32 kts | 306° |
| 2026-05-09 19:47 | 33.26845 | 44.23989 | 116 ft | 22 kts | 301° |
| 2026-05-09 19:47 | 33.26921 | 44.23867 | 117 ft | 19 kts | 321° |
| 2026-05-09 19:48 | 33.27039 | 44.23787 | 117 ft | 20 kts | 332° |
| 2026-05-09 19:48 | 33.27169 | 44.23701 | 118 ft | 22 kts | 324° |
| 2026-05-09 19:48 | 33.27300 | 44.23600 | 115 ft | 23 kts | 329° |
| 2026-05-09 19:48 | 33.27371 | 44.23492 | 116 ft | 16 kts | 247° |
| 2026-05-09 19:49 | 33.27310 | 44.23368 | 116 ft | 19 kts | 239° |
| 2026-05-09 19:49 | 33.27240 | 44.23223 | 115 ft | 20 kts | 240° |
| 2026-05-09 19:49 | 33.27168 | 44.23074 | 116 ft | 22 kts | 240° |
| 2026-05-09 19:49 | 33.27086 | 44.22906 | 115 ft | 24 kts | 239° |
| 2026-05-09 19:50 | 33.27058 | 44.22875 | 120 ft | 1 kts | 169° |
| 2026-05-09 19:50 | 33.27044 | 44.22887 | 120 ft | 5 kts | 144° |
| 2026-05-09 19:50 | 33.27042 | 44.22890 | 120 ft | 0 kts | 144° |
| 2026-05-09 19:50 | 33.27032 | 44.22893 | 115 ft | 6 kts | 162° |
| 2026-05-09 19:51 | 33.26978 | 44.22903 | 120 ft | 9 kts | 172° |
| 2026-05-09 19:51 | 33.26930 | 44.22905 | 116 ft | 3 kts | 179° |
| 2026-05-09 19:51 | 33.26915 | 44.22905 | 120 ft | 0 kts | 178° |